sensor_id;sensor_type;location;lat;lon;timestamp;P1;durP1;ratioP1;P2;durP2;ratioP2
77938;SDS011;67136;47.546;21.630;2024-02-26T00:02:13;26.27;;;13.53;;
77938;SDS011;67136;47.546;21.630;2024-02-26T00:05:17;29.40;;;16.73;;
77938;SDS011;67136;47.546;21.630;2024-02-26T00:08:19;32.10;;;15.90;;
77938;SDS011;67136;47.546;21.630;2024-02-26T00:11:22;35.15;;;17.73;;
77938;SDS011;67136;47.546;21.630;2024-02-26T00:14:24;36.63;;;17.95;;
77938;SDS011;67136;47.546;21.630;2024-02-26T00:17:27;31.67;;;18.10;;
77938;SDS011;67136;47.546;21.630;2024-02-26T00:20:30;32.05;;;18.00;;
77938;SDS011;67136;47.546;21.630;2024-02-26T00:23:35;30.33;;;17.35;;
77938;SDS011;67136;47.546;21.630;2024-02-26T00:26:38;35.53;;;17.52;;
77938;SDS011;67136;47.546;21.630;2024-02-26T00:29:41;36.33;;;17.00;;
77938;SDS011;67136;47.546;21.630;2024-02-26T00:32:44;30.30;;;16.10;;
77938;SDS011;67136;47.546;21.630;2024-02-26T00:35:48;30.20;;;16.10;;
77938;SDS011;67136;47.546;21.630;2024-02-26T00:38:51;34.55;;;16.70;;
77938;SDS011;67136;47.546;21.630;2024-02-26T00:41:53;33.40;;;16.17;;
77938;SDS011;67136;47.546;21.630;2024-02-26T00:44:56;31.00;;;16.52;;
77938;SDS011;67136;47.546;21.630;2024-02-26T00:47:59;30.23;;;15.37;;
77938;SDS011;67136;47.546;21.630;2024-02-26T00:51:07;31.08;;;16.08;;
77938;SDS011;67136;47.546;21.630;2024-02-26T00:54:10;30.37;;;15.27;;
77938;SDS011;67136;47.546;21.630;2024-02-26T00:57:12;30.60;;;14.87;;
77938;SDS011;67136;47.546;21.630;2024-02-26T01:00:15;27.42;;;15.18;;
77938;SDS011;67136;47.546;21.630;2024-02-26T01:03:19;26.00;;;13.93;;
77938;SDS011;67136;47.546;21.630;2024-02-26T01:06:21;27.87;;;14.80;;
77938;SDS011;67136;47.546;21.630;2024-02-26T01:09:24;27.27;;;14.30;;
77938;SDS011;67136;47.546;21.630;2024-02-26T01:12:27;24.85;;;13.23;;
77938;SDS011;67136;47.546;21.630;2024-02-26T01:15:30;25.67;;;13.38;;
77938;SDS011;67136;47.546;21.630;2024-02-26T01:18:33;26.37;;;13.70;;
77938;SDS011;67136;47.546;21.630;2024-02-26T01:21:36;29.85;;;14.02;;
77938;SDS011;67136;47.546;21.630;2024-02-26T01:24:38;24.12;;;13.30;;
77938;SDS011;67136;47.546;21.630;2024-02-26T01:27:41;23.67;;;12.75;;
77938;SDS011;67136;47.546;21.630;2024-02-26T01:30:46;23.42;;;13.48;;
77938;SDS011;67136;47.546;21.630;2024-02-26T01:33:48;31.17;;;13.00;;
77938;SDS011;67136;47.546;21.630;2024-02-26T01:36:52;25.70;;;13.25;;
77938;SDS011;67136;47.546;21.630;2024-02-26T01:39:54;25.50;;;13.90;;
77938;SDS011;67136;47.546;21.630;2024-02-26T01:42:57;28.83;;;12.32;;
77938;SDS011;67136;47.546;21.630;2024-02-26T01:46:01;23.50;;;12.98;;
77938;SDS011;67136;47.546;21.630;2024-02-26T01:49:06;23.83;;;13.17;;
77938;SDS011;67136;47.546;21.630;2024-02-26T01:52:14;26.48;;;13.20;;
77938;SDS011;67136;47.546;21.630;2024-02-26T01:55:18;26.60;;;13.00;;
77938;SDS011;67136;47.546;21.630;2024-02-26T01:58:21;23.50;;;12.52;;
77938;SDS011;67136;47.546;21.630;2024-02-26T02:01:25;24.67;;;14.05;;
77938;SDS011;67136;47.546;21.630;2024-02-26T02:04:30;25.40;;;13.10;;
77938;SDS011;67136;47.546;21.630;2024-02-26T02:07:33;30.33;;;14.05;;
77938;SDS011;67136;47.546;21.630;2024-02-26T02:10:36;28.08;;;13.40;;
77938;SDS011;67136;47.546;21.630;2024-02-26T02:13:40;27.75;;;14.00;;
77938;SDS011;67136;47.546;21.630;2024-02-26T02:16:43;28.35;;;13.65;;
77938;SDS011;67136;47.546;21.630;2024-02-26T02:19:46;28.10;;;13.73;;
77938;SDS011;67136;47.546;21.630;2024-02-26T02:22:48;28.35;;;13.80;;
77938;SDS011;67136;47.546;21.630;2024-02-26T02:25:51;24.63;;;13.85;;
77938;SDS011;67136;47.546;21.630;2024-02-26T02:28:55;28.60;;;13.65;;
77938;SDS011;67136;47.546;21.630;2024-02-26T02:31:57;28.42;;;13.13;;
77938;SDS011;67136;47.546;21.630;2024-02-26T02:35:01;29.37;;;13.03;;
77938;SDS011;67136;47.546;21.630;2024-02-26T02:38:04;32.40;;;14.52;;
77938;SDS011;67136;47.546;21.630;2024-02-26T02:41:07;25.25;;;13.07;;
77938;SDS011;67136;47.546;21.630;2024-02-26T02:44:10;23.95;;;12.95;;
77938;SDS011;67136;47.546;21.630;2024-02-26T02:47:12;25.98;;;12.10;;
77938;SDS011;67136;47.546;21.630;2024-02-26T02:50:15;25.40;;;12.30;;
77938;SDS011;67136;47.546;21.630;2024-02-26T02:53:18;21.90;;;12.27;;
77938;SDS011;67136;47.546;21.630;2024-02-26T02:56:21;28.10;;;12.70;;
77938;SDS011;67136;47.546;21.630;2024-02-26T02:59:24;25.00;;;12.27;;
77938;SDS011;67136;47.546;21.630;2024-02-26T03:02:27;31.92;;;12.43;;
77938;SDS011;67136;47.546;21.630;2024-02-26T03:05:32;27.60;;;12.60;;
77938;SDS011;67136;47.546;21.630;2024-02-26T03:08:34;24.45;;;11.25;;
77938;SDS011;67136;47.546;21.630;2024-02-26T03:11:40;21.85;;;10.80;;
77938;SDS011;67136;47.546;21.630;2024-02-26T03:14:43;21.73;;;11.25;;
77938;SDS011;67136;47.546;21.630;2024-02-26T03:17:46;22.10;;;10.75;;
77938;SDS011;67136;47.546;21.630;2024-02-26T03:20:49;20.03;;;10.30;;
77938;SDS011;67136;47.546;21.630;2024-02-26T03:23:52;22.25;;;10.82;;
77938;SDS011;67136;47.546;21.630;2024-02-26T03:26:54;26.23;;;11.57;;
77938;SDS011;67136;47.546;21.630;2024-02-26T03:29:58;23.65;;;11.48;;
77938;SDS011;67136;47.546;21.630;2024-02-26T03:33:03;22.23;;;11.38;;
77938;SDS011;67136;47.546;21.630;2024-02-26T03:36:06;20.27;;;11.23;;
77938;SDS011;67136;47.546;21.630;2024-02-26T03:39:10;27.75;;;10.65;;
77938;SDS011;67136;47.546;21.630;2024-02-26T03:42:13;22.95;;;10.30;;
77938;SDS011;67136;47.546;21.630;2024-02-26T03:45:16;21.48;;;10.38;;
77938;SDS011;67136;47.546;21.630;2024-02-26T03:48:19;19.80;;;9.93;;
77938;SDS011;67136;47.546;21.630;2024-02-26T03:51:22;26.20;;;10.80;;
77938;SDS011;67136;47.546;21.630;2024-02-26T03:54:25;23.05;;;10.52;;
77938;SDS011;67136;47.546;21.630;2024-02-26T03:57:27;22.77;;;10.65;;
77938;SDS011;67136;47.546;21.630;2024-02-26T04:00:30;22.08;;;10.75;;
77938;SDS011;67136;47.546;21.630;2024-02-26T04:03:33;20.65;;;10.95;;
77938;SDS011;67136;47.546;21.630;2024-02-26T04:06:36;21.07;;;11.23;;
77938;SDS011;67136;47.546;21.630;2024-02-26T04:09:39;20.98;;;10.73;;
77938;SDS011;67136;47.546;21.630;2024-02-26T04:12:42;23.08;;;10.70;;
77938;SDS011;67136;47.546;21.630;2024-02-26T04:15:45;24.55;;;9.77;;
77938;SDS011;67136;47.546;21.630;2024-02-26T04:18:49;21.98;;;9.93;;
77938;SDS011;67136;47.546;21.630;2024-02-26T04:21:52;22.03;;;10.23;;
77938;SDS011;67136;47.546;21.630;2024-02-26T04:24:54;19.73;;;10.25;;
77938;SDS011;67136;47.546;21.630;2024-02-26T04:27:57;20.45;;;9.55;;
77938;SDS011;67136;47.546;21.630;2024-02-26T04:31:00;18.73;;;9.10;;
77938;SDS011;67136;47.546;21.630;2024-02-26T04:34:04;17.05;;;9.38;;
77938;SDS011;67136;47.546;21.630;2024-02-26T04:37:06;20.03;;;9.63;;
77938;SDS011;67136;47.546;21.630;2024-02-26T04:40:09;20.45;;;8.65;;
77938;SDS011;67136;47.546;21.630;2024-02-26T04:43:12;18.73;;;8.68;;
77938;SDS011;67136;47.546;21.630;2024-02-26T04:46:14;17.02;;;8.95;;
77938;SDS011;67136;47.546;21.630;2024-02-26T04:49:17;21.73;;;9.98;;
77938;SDS011;67136;47.546;21.630;2024-02-26T04:52:21;18.53;;;9.53;;
77938;SDS011;67136;47.546;21.630;2024-02-26T04:55:23;19.08;;;8.93;;
77938;SDS011;67136;47.546;21.630;2024-02-26T04:58:26;23.00;;;8.65;;
77938;SDS011;67136;47.546;21.630;2024-02-26T05:01:29;16.58;;;9.05;;
77938;SDS011;67136;47.546;21.630;2024-02-26T05:04:32;18.30;;;8.68;;
77938;SDS011;67136;47.546;21.630;2024-02-26T05:07:39;17.40;;;7.97;;
77938;SDS011;67136;47.546;21.630;2024-02-26T05:10:45;19.70;;;8.70;;
77938;SDS011;67136;47.546;21.630;2024-02-26T05:13:48;19.20;;;8.95;;
77938;SDS011;67136;47.546;21.630;2024-02-26T05:16:50;25.30;;;9.20;;
77938;SDS011;67136;47.546;21.630;2024-02-26T05:19:53;16.85;;;8.95;;
77938;SDS011;67136;47.546;21.630;2024-02-26T05:22:56;21.40;;;8.73;;
77938;SDS011;67136;47.546;21.630;2024-02-26T05:26:01;20.25;;;8.40;;
77938;SDS011;67136;47.546;21.630;2024-02-26T05:29:04;23.27;;;9.23;;
77938;SDS011;67136;47.546;21.630;2024-02-26T05:32:06;19.73;;;8.35;;
77938;SDS011;67136;47.546;21.630;2024-02-26T05:35:09;18.87;;;8.60;;
77938;SDS011;67136;47.546;21.630;2024-02-26T05:38:14;17.80;;;8.63;;
77938;SDS011;67136;47.546;21.630;2024-02-26T05:41:17;17.70;;;8.85;;
77938;SDS011;67136;47.546;21.630;2024-02-26T05:44:26;20.12;;;8.85;;
77938;SDS011;67136;47.546;21.630;2024-02-26T05:47:29;19.85;;;8.45;;
77938;SDS011;67136;47.546;21.630;2024-02-26T05:50:31;20.20;;;8.73;;
77938;SDS011;67136;47.546;21.630;2024-02-26T05:53:34;17.83;;;8.87;;
77938;SDS011;67136;47.546;21.630;2024-02-26T05:56:37;16.40;;;7.93;;
77938;SDS011;67136;47.546;21.630;2024-02-26T05:59:39;16.20;;;8.27;;
77938;SDS011;67136;47.546;21.630;2024-02-26T06:02:45;19.50;;;8.32;;
77938;SDS011;67136;47.546;21.630;2024-02-26T06:05:48;23.02;;;8.77;;
77938;SDS011;67136;47.546;21.630;2024-02-26T06:08:51;17.37;;;8.33;;
77938;SDS011;67136;47.546;21.630;2024-02-26T06:11:54;19.10;;;8.68;;
77938;SDS011;67136;47.546;21.630;2024-02-26T06:14:57;21.02;;;9.57;;
77938;SDS011;67136;47.546;21.630;2024-02-26T06:18:04;22.30;;;10.63;;
77938;SDS011;67136;47.546;21.630;2024-02-26T06:21:10;23.35;;;9.90;;
77938;SDS011;67136;47.546;21.630;2024-02-26T06:24:13;22.20;;;9.03;;
77938;SDS011;67136;47.546;21.630;2024-02-26T06:27:16;24.65;;;8.90;;
77938;SDS011;67136;47.546;21.630;2024-02-26T06:30:19;20.98;;;8.60;;
77938;SDS011;67136;47.546;21.630;2024-02-26T06:33:21;17.17;;;8.27;;
77938;SDS011;67136;47.546;21.630;2024-02-26T06:36:24;18.90;;;7.85;;
77938;SDS011;67136;47.546;21.630;2024-02-26T06:39:28;21.73;;;7.97;;
77938;SDS011;67136;47.546;21.630;2024-02-26T06:42:30;23.67;;;8.20;;
77938;SDS011;67136;47.546;21.630;2024-02-26T06:45:33;17.75;;;8.02;;
77938;SDS011;67136;47.546;21.630;2024-02-26T06:48:38;15.90;;;7.72;;
77938;SDS011;67136;47.546;21.630;2024-02-26T06:51:50;17.08;;;7.75;;
77938;SDS011;67136;47.546;21.630;2024-02-26T06:55:00;16.67;;;8.10;;
77938;SDS011;67136;47.546;21.630;2024-02-26T06:58:13;16.12;;;7.90;;
77938;SDS011;67136;47.546;21.630;2024-02-26T07:01:19;17.40;;;8.02;;
77938;SDS011;67136;47.546;21.630;2024-02-26T07:04:22;16.60;;;7.53;;
77938;SDS011;67136;47.546;21.630;2024-02-26T07:07:25;18.85;;;7.30;;
77938;SDS011;67136;47.546;21.630;2024-02-26T07:10:28;15.10;;;7.33;;
77938;SDS011;67136;47.546;21.630;2024-02-26T07:13:31;17.50;;;8.18;;
77938;SDS011;67136;47.546;21.630;2024-02-26T07:16:33;19.87;;;8.05;;
77938;SDS011;67136;47.546;21.630;2024-02-26T07:19:36;17.30;;;7.37;;
77938;SDS011;67136;47.546;21.630;2024-02-26T07:22:38;13.82;;;7.47;;
77938;SDS011;67136;47.546;21.630;2024-02-26T07:25:41;16.00;;;7.70;;
77938;SDS011;67136;47.546;21.630;2024-02-26T07:28:47;23.83;;;8.20;;
77938;SDS011;67136;47.546;21.630;2024-02-26T07:31:49;24.27;;;9.57;;
77938;SDS011;67136;47.546;21.630;2024-02-26T07:34:52;17.98;;;7.57;;
77938;SDS011;67136;47.546;21.630;2024-02-26T07:37:55;18.37;;;7.80;;
77938;SDS011;67136;47.546;21.630;2024-02-26T07:40:58;18.03;;;6.60;;
77938;SDS011;67136;47.546;21.630;2024-02-26T07:44:05;16.75;;;7.00;;
77938;SDS011;67136;47.546;21.630;2024-02-26T07:47:08;15.25;;;6.62;;
77938;SDS011;67136;47.546;21.630;2024-02-26T07:50:12;16.40;;;6.50;;
77938;SDS011;67136;47.546;21.630;2024-02-26T07:53:15;11.88;;;6.20;;
77938;SDS011;67136;47.546;21.630;2024-02-26T07:56:18;15.67;;;5.73;;
77938;SDS011;67136;47.546;21.630;2024-02-26T07:59:20;13.25;;;5.45;;
77938;SDS011;67136;47.546;21.630;2024-02-26T08:02:23;12.13;;;5.20;;
77938;SDS011;67136;47.546;21.630;2024-02-26T08:05:30;9.73;;;5.37;;
77938;SDS011;67136;47.546;21.630;2024-02-26T08:08:32;10.75;;;5.22;;
77938;SDS011;67136;47.546;21.630;2024-02-26T08:11:35;9.53;;;5.07;;
77938;SDS011;67136;47.546;21.630;2024-02-26T08:14:38;15.75;;;5.75;;
77938;SDS011;67136;47.546;21.630;2024-02-26T08:17:41;13.48;;;4.87;;
77938;SDS011;67136;47.546;21.630;2024-02-26T08:20:45;10.80;;;4.90;;
77938;SDS011;67136;47.546;21.630;2024-02-26T08:23:48;11.63;;;4.95;;
77938;SDS011;67136;47.546;21.630;2024-02-26T08:26:51;16.23;;;5.10;;
77938;SDS011;67136;47.546;21.630;2024-02-26T08:29:54;8.80;;;4.95;;
77938;SDS011;67136;47.546;21.630;2024-02-26T08:32:58;10.18;;;4.43;;
77938;SDS011;67136;47.546;21.630;2024-02-26T08:36:05;11.43;;;4.53;;
77938;SDS011;67136;47.546;21.630;2024-02-26T08:39:08;10.13;;;4.50;;
77938;SDS011;67136;47.546;21.630;2024-02-26T08:42:16;11.50;;;3.97;;
77938;SDS011;67136;47.546;21.630;2024-02-26T08:45:19;12.18;;;3.75;;
77938;SDS011;67136;47.546;21.630;2024-02-26T08:48:22;11.43;;;3.78;;
77938;SDS011;67136;47.546;21.630;2024-02-26T08:51:25;11.98;;;4.05;;
77938;SDS011;67136;47.546;21.630;2024-02-26T08:54:28;5.68;;;2.95;;
77938;SDS011;67136;47.546;21.630;2024-02-26T08:57:31;9.00;;;3.10;;
77938;SDS011;67136;47.546;21.630;2024-02-26T09:00:36;5.85;;;3.15;;
77938;SDS011;67136;47.546;21.630;2024-02-26T09:03:39;8.65;;;3.25;;
77938;SDS011;67136;47.546;21.630;2024-02-26T09:06:42;13.32;;;3.33;;
77938;SDS011;67136;47.546;21.630;2024-02-26T09:09:45;8.30;;;3.22;;
77938;SDS011;67136;47.546;21.630;2024-02-26T09:12:48;8.00;;;2.60;;
77938;SDS011;67136;47.546;21.630;2024-02-26T09:15:50;8.13;;;2.80;;
77938;SDS011;67136;47.546;21.630;2024-02-26T09:18:53;9.18;;;2.33;;
77938;SDS011;67136;47.546;21.630;2024-02-26T09:21:56;5.12;;;2.25;;
77938;SDS011;67136;47.546;21.630;2024-02-26T09:25:00;5.75;;;2.17;;
77938;SDS011;67136;47.546;21.630;2024-02-26T09:28:02;4.80;;;2.20;;
77938;SDS011;67136;47.546;21.630;2024-02-26T09:31:05;7.45;;;3.08;;
77938;SDS011;67136;47.546;21.630;2024-02-26T09:34:08;6.87;;;2.65;;
77938;SDS011;67136;47.546;21.630;2024-02-26T09:37:11;8.60;;;2.30;;
77938;SDS011;67136;47.546;21.630;2024-02-26T09:40:23;7.45;;;2.72;;
77938;SDS011;67136;47.546;21.630;2024-02-26T09:43:26;16.50;;;2.40;;
77938;SDS011;67136;47.546;21.630;2024-02-26T09:46:36;9.25;;;2.60;;
77938;SDS011;67136;47.546;21.630;2024-02-26T09:49:40;7.20;;;2.85;;
77938;SDS011;67136;47.546;21.630;2024-02-26T09:52:44;5.57;;;2.20;;
77938;SDS011;67136;47.546;21.630;2024-02-26T09:55:47;7.20;;;2.58;;
77938;SDS011;67136;47.546;21.630;2024-02-26T09:58:51;10.37;;;3.00;;
77938;SDS011;67136;47.546;21.630;2024-02-26T10:01:57;5.20;;;2.90;;
77938;SDS011;67136;47.546;21.630;2024-02-26T10:05:02;3.55;;;2.15;;
77938;SDS011;67136;47.546;21.630;2024-02-26T10:08:08;4.32;;;2.35;;
77938;SDS011;67136;47.546;21.630;2024-02-26T10:11:13;4.68;;;2.72;;
77938;SDS011;67136;47.546;21.630;2024-02-26T10:14:17;7.10;;;3.13;;
77938;SDS011;67136;47.546;21.630;2024-02-26T10:17:20;4.93;;;2.67;;
77938;SDS011;67136;47.546;21.630;2024-02-26T10:20:22;5.12;;;2.72;;
77938;SDS011;67136;47.546;21.630;2024-02-26T10:23:26;7.78;;;2.83;;
77938;SDS011;67136;47.546;21.630;2024-02-26T10:26:32;3.70;;;2.50;;
77938;SDS011;67136;47.546;21.630;2024-02-26T10:29:35;5.47;;;2.50;;
77938;SDS011;67136;47.546;21.630;2024-02-26T10:32:37;6.75;;;2.87;;
77938;SDS011;67136;47.546;21.630;2024-02-26T10:35:47;6.93;;;2.80;;
77938;SDS011;67136;47.546;21.630;2024-02-26T10:38:50;5.03;;;2.30;;
77938;SDS011;67136;47.546;21.630;2024-02-26T10:41:56;5.53;;;2.53;;
77938;SDS011;67136;47.546;21.630;2024-02-26T10:44:59;5.23;;;2.10;;
77938;SDS011;67136;47.546;21.630;2024-02-26T10:48:04;4.68;;;2.22;;
77938;SDS011;67136;47.546;21.630;2024-02-26T10:51:08;3.58;;;1.60;;
77938;SDS011;67136;47.546;21.630;2024-02-26T10:54:15;3.65;;;2.20;;
77938;SDS011;67136;47.546;21.630;2024-02-26T10:57:18;3.03;;;2.00;;
77938;SDS011;67136;47.546;21.630;2024-02-26T11:00:22;4.03;;;2.30;;
77938;SDS011;67136;47.546;21.630;2024-02-26T11:03:25;6.45;;;2.45;;
77938;SDS011;67136;47.546;21.630;2024-02-26T11:06:29;5.32;;;2.22;;
77938;SDS011;67136;47.546;21.630;2024-02-26T11:09:32;4.85;;;2.30;;
77938;SDS011;67136;47.546;21.630;2024-02-26T11:12:35;9.60;;;2.58;;
77938;SDS011;67136;47.546;21.630;2024-02-26T11:15:40;6.90;;;2.37;;
77938;SDS011;67136;47.546;21.630;2024-02-26T11:18:46;4.00;;;2.25;;
77938;SDS011;67136;47.546;21.630;2024-02-26T11:21:50;6.47;;;2.15;;
77938;SDS011;67136;47.546;21.630;2024-02-26T11:24:54;6.47;;;2.20;;
77938;SDS011;67136;47.546;21.630;2024-02-26T11:28:04;4.95;;;2.30;;
77938;SDS011;67136;47.546;21.630;2024-02-26T11:31:27;4.90;;;2.10;;
77938;SDS011;67136;47.546;21.630;2024-02-26T11:34:29;5.68;;;2.72;;
77938;SDS011;67136;47.546;21.630;2024-02-26T11:37:33;3.42;;;2.40;;
77938;SDS011;67136;47.546;21.630;2024-02-26T11:40:40;7.60;;;2.50;;
77938;SDS011;67136;47.546;21.630;2024-02-26T11:44:06;5.68;;;2.85;;
77938;SDS011;67136;47.546;21.630;2024-02-26T11:47:12;4.53;;;2.40;;
77938;SDS011;67136;47.546;21.630;2024-02-26T11:50:41;4.80;;;2.50;;
77938;SDS011;67136;47.546;21.630;2024-02-26T11:53:45;6.05;;;2.90;;
77938;SDS011;67136;47.546;21.630;2024-02-26T11:56:51;6.62;;;2.70;;
77938;SDS011;67136;47.546;21.630;2024-02-26T11:59:54;5.82;;;2.30;;
77938;SDS011;67136;47.546;21.630;2024-02-26T12:03:13;6.43;;;2.30;;
77938;SDS011;67136;47.546;21.630;2024-02-26T12:06:20;4.15;;;2.20;;
77938;SDS011;67136;47.546;21.630;2024-02-26T12:09:30;7.85;;;2.65;;
77938;SDS011;67136;47.546;21.630;2024-02-26T12:12:38;4.87;;;2.22;;
77938;SDS011;67136;47.546;21.630;2024-02-26T12:15:45;4.53;;;2.50;;
77938;SDS011;67136;47.546;21.630;2024-02-26T12:18:57;5.00;;;2.60;;
77938;SDS011;67136;47.546;21.630;2024-02-26T12:22:02;8.50;;;2.55;;
77938;SDS011;67136;47.546;21.630;2024-02-26T12:25:04;4.55;;;2.33;;
77938;SDS011;67136;47.546;21.630;2024-02-26T12:28:08;6.18;;;2.40;;
77938;SDS011;67136;47.546;21.630;2024-02-26T12:31:10;5.25;;;2.50;;
77938;SDS011;67136;47.546;21.630;2024-02-26T12:34:13;5.23;;;2.70;;
77938;SDS011;67136;47.546;21.630;2024-02-26T12:37:16;6.32;;;2.30;;
77938;SDS011;67136;47.546;21.630;2024-02-26T12:40:19;3.80;;;2.22;;
77938;SDS011;67136;47.546;21.630;2024-02-26T12:43:22;6.12;;;2.37;;
77938;SDS011;67136;47.546;21.630;2024-02-26T12:46:25;7.97;;;2.50;;
77938;SDS011;67136;47.546;21.630;2024-02-26T12:49:27;3.27;;;2.20;;
77938;SDS011;67136;47.546;21.630;2024-02-26T12:52:34;5.57;;;3.00;;
77938;SDS011;67136;47.546;21.630;2024-02-26T12:55:38;6.00;;;2.65;;
77938;SDS011;67136;47.546;21.630;2024-02-26T12:58:42;5.87;;;2.75;;
77938;SDS011;67136;47.546;21.630;2024-02-26T13:01:46;4.97;;;2.30;;
77938;SDS011;67136;47.546;21.630;2024-02-26T13:04:50;5.00;;;2.40;;
77938;SDS011;67136;47.546;21.630;2024-02-26T13:07:57;5.82;;;2.60;;
77938;SDS011;67136;47.546;21.630;2024-02-26T13:11:13;4.35;;;2.60;;
77938;SDS011;67136;47.546;21.630;2024-02-26T13:14:20;3.83;;;2.08;;
77938;SDS011;67136;47.546;21.630;2024-02-26T13:17:23;12.30;;;2.62;;
77938;SDS011;67136;47.546;21.630;2024-02-26T13:20:30;5.83;;;2.20;;
77938;SDS011;67136;47.546;21.630;2024-02-26T13:23:34;5.20;;;2.25;;
77938;SDS011;67136;47.546;21.630;2024-02-26T13:26:37;3.85;;;2.58;;
77938;SDS011;67136;47.546;21.630;2024-02-26T13:29:40;4.75;;;2.72;;
77938;SDS011;67136;47.546;21.630;2024-02-26T13:32:43;4.82;;;2.50;;
77938;SDS011;67136;47.546;21.630;2024-02-26T13:35:46;4.23;;;2.40;;
77938;SDS011;67136;47.546;21.630;2024-02-26T13:38:52;5.05;;;2.80;;
77938;SDS011;67136;47.546;21.630;2024-02-26T13:41:57;7.12;;;2.60;;
77938;SDS011;67136;47.546;21.630;2024-02-26T13:44:59;4.20;;;2.55;;
77938;SDS011;67136;47.546;21.630;2024-02-26T13:48:03;5.47;;;2.37;;
77938;SDS011;67136;47.546;21.630;2024-02-26T13:51:10;4.53;;;2.53;;
77938;SDS011;67136;47.546;21.630;2024-02-26T13:54:14;5.85;;;2.42;;
77938;SDS011;67136;47.546;21.630;2024-02-26T13:57:17;5.53;;;2.40;;
77938;SDS011;67136;47.546;21.630;2024-02-26T14:00:21;3.87;;;2.28;;
77938;SDS011;67136;47.546;21.630;2024-02-26T14:03:24;5.78;;;2.35;;
77938;SDS011;67136;47.546;21.630;2024-02-26T14:06:27;4.20;;;2.40;;
77938;SDS011;67136;47.546;21.630;2024-02-26T14:09:31;6.80;;;2.40;;
77938;SDS011;67136;47.546;21.630;2024-02-26T14:12:49;5.62;;;3.20;;
77938;SDS011;67136;47.546;21.630;2024-02-26T14:15:52;3.37;;;2.10;;
77938;SDS011;67136;47.546;21.630;2024-02-26T14:19:00;4.90;;;3.00;;
77938;SDS011;67136;47.546;21.630;2024-02-26T14:22:03;5.47;;;2.17;;
77938;SDS011;67136;47.546;21.630;2024-02-26T14:25:06;4.55;;;2.70;;
77938;SDS011;67136;47.546;21.630;2024-02-26T14:28:12;4.97;;;2.40;;
77938;SDS011;67136;47.546;21.630;2024-02-26T14:31:23;4.47;;;2.50;;
77938;SDS011;67136;47.546;21.630;2024-02-26T14:34:27;3.85;;;2.58;;
77938;SDS011;67136;47.546;21.630;2024-02-26T14:37:30;4.30;;;2.80;;
77938;SDS011;67136;47.546;21.630;2024-02-26T14:40:33;6.22;;;2.83;;
77938;SDS011;67136;47.546;21.630;2024-02-26T14:48:00;9.68;;;2.78;;
77938;SDS011;67136;47.546;21.630;2024-02-26T14:51:10;4.32;;;2.80;;
77938;SDS011;67136;47.546;21.630;2024-02-26T14:54:13;4.07;;;2.33;;
77938;SDS011;67136;47.546;21.630;2024-02-26T14:57:16;6.00;;;2.85;;
77938;SDS011;67136;47.546;21.630;2024-02-26T15:00:19;6.18;;;2.92;;
77938;SDS011;67136;47.546;21.630;2024-02-26T15:03:22;6.65;;;2.53;;
77938;SDS011;67136;47.546;21.630;2024-02-26T15:06:25;9.63;;;2.97;;
77938;SDS011;67136;47.546;21.630;2024-02-26T15:09:29;4.90;;;2.77;;
77938;SDS011;67136;47.546;21.630;2024-02-26T15:12:32;5.90;;;2.70;;
77938;SDS011;67136;47.546;21.630;2024-02-26T15:15:35;6.97;;;2.72;;
77938;SDS011;67136;47.546;21.630;2024-02-26T15:18:38;7.53;;;3.00;;
77938;SDS011;67136;47.546;21.630;2024-02-26T15:21:44;4.55;;;2.90;;
77938;SDS011;67136;47.546;21.630;2024-02-26T15:24:50;10.43;;;3.30;;
77938;SDS011;67136;47.546;21.630;2024-02-26T15:27:55;8.13;;;2.97;;
77938;SDS011;67136;47.546;21.630;2024-02-26T15:30:57;8.77;;;2.97;;
77938;SDS011;67136;47.546;21.630;2024-02-26T15:34:00;6.72;;;2.72;;
77938;SDS011;67136;47.546;21.630;2024-02-26T15:37:03;7.87;;;2.83;;
77938;SDS011;67136;47.546;21.630;2024-02-26T15:40:06;6.50;;;2.73;;
77938;SDS011;67136;47.546;21.630;2024-02-26T15:43:09;10.40;;;2.90;;
77938;SDS011;67136;47.546;21.630;2024-02-26T15:46:16;3.90;;;2.80;;
77938;SDS011;67136;47.546;21.630;2024-02-26T15:49:19;5.30;;;3.65;;
77938;SDS011;67136;47.546;21.630;2024-02-26T15:52:28;6.05;;;2.70;;
77938;SDS011;67136;47.546;21.630;2024-02-26T15:55:32;7.63;;;3.10;;
77938;SDS011;67136;47.546;21.630;2024-02-26T15:58:34;6.15;;;2.80;;
77938;SDS011;67136;47.546;21.630;2024-02-26T16:01:38;9.48;;;3.00;;
77938;SDS011;67136;47.546;21.630;2024-02-26T16:04:41;10.20;;;3.40;;
77938;SDS011;67136;47.546;21.630;2024-02-26T16:07:49;5.87;;;3.12;;
77938;SDS011;67136;47.546;21.630;2024-02-26T16:10:57;4.60;;;2.60;;
77938;SDS011;67136;47.546;21.630;2024-02-26T16:17:51;5.70;;;3.10;;
77938;SDS011;67136;47.546;21.630;2024-02-26T16:21:00;5.80;;;3.20;;
77938;SDS011;67136;47.546;21.630;2024-02-26T16:24:04;6.18;;;3.03;;
77938;SDS011;67136;47.546;21.630;2024-02-26T16:27:07;7.10;;;3.37;;
77938;SDS011;67136;47.546;21.630;2024-02-26T16:30:10;11.65;;;5.12;;
77938;SDS011;67136;47.546;21.630;2024-02-26T16:33:16;14.90;;;6.78;;
77938;SDS011;67136;47.546;21.630;2024-02-26T16:36:19;16.77;;;7.45;;
77938;SDS011;67136;47.546;21.630;2024-02-26T16:39:22;17.77;;;6.03;;
77938;SDS011;67136;47.546;21.630;2024-02-26T16:42:28;19.93;;;8.57;;
77938;SDS011;67136;47.546;21.630;2024-02-26T16:45:30;14.70;;;6.65;;
77938;SDS011;67136;47.546;21.630;2024-02-26T16:48:34;14.80;;;6.00;;
77938;SDS011;67136;47.546;21.630;2024-02-26T16:51:38;13.93;;;6.25;;
77938;SDS011;67136;47.546;21.630;2024-02-26T16:54:41;13.48;;;6.65;;
77938;SDS011;67136;47.546;21.630;2024-02-26T16:57:44;12.10;;;5.77;;
77938;SDS011;67136;47.546;21.630;2024-02-26T17:00:47;14.32;;;6.10;;
77938;SDS011;67136;47.546;21.630;2024-02-26T17:03:50;13.57;;;5.82;;
77938;SDS011;67136;47.546;21.630;2024-02-26T17:06:52;11.60;;;5.50;;
77938;SDS011;67136;47.546;21.630;2024-02-26T17:09:55;17.35;;;5.87;;
77938;SDS011;67136;47.546;21.630;2024-02-26T17:12:58;19.07;;;9.77;;
77938;SDS011;67136;47.546;21.630;2024-02-26T17:16:00;17.90;;;8.27;;
77938;SDS011;67136;47.546;21.630;2024-02-26T17:19:03;15.68;;;7.68;;
77938;SDS011;67136;47.546;21.630;2024-02-26T17:22:06;14.30;;;7.72;;
77938;SDS011;67136;47.546;21.630;2024-02-26T17:25:11;14.93;;;7.03;;
77938;SDS011;67136;47.546;21.630;2024-02-26T17:28:15;14.63;;;7.93;;
77938;SDS011;67136;47.546;21.630;2024-02-26T17:31:20;19.10;;;7.80;;
77938;SDS011;67136;47.546;21.630;2024-02-26T17:34:23;18.30;;;7.55;;
77938;SDS011;67136;47.546;21.630;2024-02-26T17:37:26;15.73;;;8.18;;
77938;SDS011;67136;47.546;21.630;2024-02-26T17:40:29;15.02;;;6.60;;
77938;SDS011;67136;47.546;21.630;2024-02-26T17:43:36;14.00;;;6.50;;
77938;SDS011;67136;47.546;21.630;2024-02-26T17:46:38;23.25;;;8.65;;
77938;SDS011;67136;47.546;21.630;2024-02-26T17:49:41;14.23;;;6.20;;
77938;SDS011;67136;47.546;21.630;2024-02-26T17:52:44;16.02;;;8.40;;
77938;SDS011;67136;47.546;21.630;2024-02-26T17:55:47;19.60;;;8.02;;
77938;SDS011;67136;47.546;21.630;2024-02-26T17:58:52;15.97;;;8.10;;
77938;SDS011;67136;47.546;21.630;2024-02-26T18:01:56;17.10;;;9.80;;
77938;SDS011;67136;47.546;21.630;2024-02-26T18:04:59;16.83;;;8.80;;
77938;SDS011;67136;47.546;21.630;2024-02-26T18:08:01;15.05;;;8.93;;